createdAt,value
2018-12-29T00:01:34.598Z,64.37
2018-12-29T00:04:06.248Z,63.93
2018-12-29T00:06:37.725Z,63.93
2018-12-29T00:09:09.290Z,64.57
2018-12-29T00:11:40.622Z,64.48
2018-12-29T00:14:12.507Z,64.48
2018-12-29T00:16:44.305Z,64.07
2018-12-29T00:19:15.816Z,64.07
2018-12-29T00:21:47.075Z,64.23
2018-12-29T00:24:19.002Z,63.98
2018-12-29T00:26:50.514Z,63.96
2018-12-29T00:29:22.539Z,64.11
2018-12-29T00:31:54.086Z,63.82
2018-12-29T00:34:25.763Z,63.82
2018-12-29T00:36:57.134Z,63.62
2018-12-29T00:39:29.035Z,63.83
2018-12-29T00:42:00.234Z,64.34
2018-12-29T00:44:31.660Z,64.43
2018-12-29T00:47:02.991Z,64.43
2018-12-29T00:49:34.358Z,64.37
2018-12-29T00:52:06.626Z,64.73
2018-12-29T00:54:38.240Z,64.73
2018-12-29T00:57:09.543Z,65.07
2018-12-29T00:59:41.661Z,64.70
2018-12-29T01:02:12.866Z,64.18
2018-12-29T01:04:44.567Z,64.19
2018-12-29T01:07:15.719Z,63.80
2018-12-29T01:09:47.297Z,63.70
2018-12-29T01:12:18.492Z,63.66
2018-12-29T01:14:49.739Z,62.62
2018-12-29T01:17:21.595Z,63.03
2018-12-29T01:19:53.241Z,63.14
2018-12-29T01:22:24.671Z,63.34
2018-12-29T01:24:56.399Z,63.34
2018-12-29T01:27:27.558Z,63.90
2018-12-29T01:30:00.299Z,64.01
2018-12-29T01:32:32.807Z,64.01
2018-12-29T01:35:04.608Z,64.21
2018-12-29T01:37:35.775Z,64.58
2018-12-29T01:40:07.505Z,64.88
2018-12-29T01:42:39.062Z,64.88
2018-12-29T01:45:17.138Z,64.92
2018-12-29T01:47:43.661Z,65.06
2018-12-29T01:50:14.965Z,65.34
2018-12-29T01:52:46.321Z,64.91
2018-12-29T01:55:17.781Z,64.61
2018-12-29T01:57:49.017Z,64.83
2018-12-29T02:00:21.268Z,65.08
2018-12-29T02:02:52.586Z,65.08
2018-12-29T02:05:23.931Z,65.35
2018-12-29T02:07:55.047Z,65.49
2018-12-29T02:10:26.571Z,65.21
2018-12-29T02:12:57.684Z,65.46
2018-12-29T02:15:29.841Z,65.46
2018-12-29T02:18:01.630Z,65.37
2018-12-29T02:20:33.225Z,65.17
2018-12-29T02:23:04.276Z,64.70
2018-12-29T02:25:36.061Z,64.17
2018-12-29T02:28:07.660Z,64.41
2018-12-29T02:30:39.985Z,64.41
2018-12-29T02:33:11.448Z,62.75
2018-12-29T02:35:42.935Z,63.05
2018-12-29T02:38:13.958Z,63.05
2018-12-29T02:40:45.296Z,62.71
2018-12-29T02:43:16.464Z,62.44
2018-12-29T02:45:47.806Z,63.81
2018-12-29T02:48:19.224Z,63.81
2018-12-29T02:50:50.788Z,61.28
2018-12-29T02:53:22.055Z,61.28
2018-12-29T02:55:53.506Z,60.15
2018-12-29T02:58:25.706Z,60.53
2018-12-29T03:00:58.092Z,60.28
2018-12-29T03:03:29.673Z,60.28
2018-12-29T03:06:01.605Z,60.24
2018-12-29T03:08:37.377Z,60.24
2018-12-29T03:11:08.986Z,60.05
2018-12-29T03:13:40.529Z,60.05
2018-12-29T03:16:12.093Z,59.68
2018-12-29T03:18:45.106Z,59.58
2018-12-29T03:21:16.491Z,59.55
2018-12-29T03:23:47.715Z,59.63
2018-12-29T03:26:19.310Z,59.72
2018-12-29T03:28:51.010Z,60.15
2018-12-29T03:31:22.862Z,60.10
2018-12-29T03:33:54.271Z,59.96
2018-12-29T03:36:25.710Z,60.11
2018-12-29T03:38:56.887Z,60.20
2018-12-29T03:41:28.755Z,60.70
2018-12-29T03:44:00.310Z,60.58
2018-12-29T03:46:32.102Z,60.24
2018-12-29T03:49:03.662Z,60.08
2018-12-29T03:51:35.774Z,60.08
2018-12-29T03:54:07.175Z,59.73
2018-12-29T03:56:42.034Z,60.00
2018-12-29T03:59:13.535Z,59.51
2018-12-29T04:01:45.430Z,59.47
2018-12-29T04:04:16.857Z,59.47
2018-12-29T04:06:48.529Z,59.03
2018-12-29T04:09:36.243Z,59.27
2018-12-29T04:12:22.206Z,59.22
2018-12-29T04:14:53.804Z,59.06
2018-12-29T04:17:25.390Z,59.06
2018-12-29T04:19:57.042Z,59.17
2018-12-29T04:22:28.701Z,58.99
2018-12-29T04:25:00.384Z,58.70
2018-12-29T04:27:32.070Z,59.01
2018-12-29T04:30:03.421Z,59.01
2018-12-29T04:32:35.529Z,59.24
2018-12-29T04:35:07.183Z,59.09
2018-12-29T04:37:38.804Z,59.28
2018-12-29T04:40:10.025Z,59.28
2018-12-29T04:42:41.510Z,59.05
2018-12-29T04:45:13.001Z,59.47
2018-12-29T04:47:44.371Z,59.60
2018-12-29T04:50:15.782Z,59.60
2018-12-29T04:52:47.345Z,59.46
2018-12-29T04:55:18.546Z,58.93
2018-12-29T04:57:49.983Z,59.33
2018-12-29T05:00:21.446Z,59.64
2018-12-29T05:02:53.615Z,59.29
2018-12-29T05:05:25.224Z,58.97
2018-12-29T05:07:56.797Z,59.07
2018-12-29T05:10:28.061Z,59.07
2018-12-29T05:12:59.510Z,59.22
2018-12-29T05:15:30.839Z,59.34
2018-12-29T05:18:02.692Z,59.34
2018-12-29T05:20:34.576Z,60.96
2018-12-29T05:23:06.340Z,59.94
2018-12-29T05:25:37.586Z,56.49
2018-12-29T05:28:09.247Z,56.49
2018-12-29T05:30:40.733Z,56.98
2018-12-29T05:33:12.522Z,54.85
2018-12-29T05:35:43.942Z,56.43
2018-12-29T05:38:15.788Z,56.43
2018-12-29T05:40:47.184Z,54.58
2018-12-29T05:43:18.658Z,51.14
2018-12-29T05:45:50.225Z,51.14
2018-12-29T05:48:22.065Z,48.43
2018-12-29T05:50:53.275Z,53.15
2018-12-29T05:53:24.892Z,51.97
2018-12-29T05:55:56.214Z,51.97
2018-12-29T05:58:27.982Z,52.91
2018-12-29T06:00:59.508Z,52.91
2018-12-29T06:03:31.368Z,50.74
2018-12-29T06:06:05.236Z,49.94
2018-12-29T06:08:37.671Z,47.79
2018-12-29T06:11:09.077Z,47.79
2018-12-29T06:13:41.152Z,50.10
2018-12-29T06:16:12.223Z,50.04
2018-12-29T06:18:50.448Z,48.52
2018-12-29T06:21:24.399Z,48.52
2018-12-29T06:23:56.374Z,47.89
2018-12-29T06:26:27.910Z,47.89
2018-12-29T06:28:59.444Z,46.15
2018-12-29T06:31:30.566Z,46.15
2018-12-29T06:34:02.505Z,49.12
2018-12-29T06:36:33.712Z,46.02
2018-12-29T06:39:11.303Z,46.49
2018-12-29T06:41:42.839Z,47.54
2018-12-29T06:44:14.209Z,47.54
2018-12-29T06:46:45.726Z,44.67
2018-12-29T06:49:17.479Z,46.71
2018-12-29T06:51:49.098Z,46.71
2018-12-29T06:54:21.792Z,46.95
2018-12-29T06:56:56.266Z,47.91
2018-12-29T06:59:27.795Z,46.00
2018-12-29T07:01:59.023Z,47.76
2018-12-29T07:04:34.155Z,43.93
2018-12-29T07:07:12.587Z,43.93
2018-12-29T07:09:44.822Z,44.41
2018-12-29T07:12:21.181Z,43.43
2018-12-29T07:14:57.630Z,41.32
2018-12-29T07:17:30.369Z,41.32
2018-12-29T07:20:01.727Z,42.55
2018-12-29T07:22:34.473Z,44.97
2018-12-29T07:25:07.251Z,46.14
2018-12-29T07:27:38.448Z,44.42
2018-12-29T07:30:11.581Z,44.42
2018-12-29T07:32:43.176Z,44.36
2018-12-29T07:35:16.918Z,44.36
2018-12-29T07:37:48.712Z,46.05
2018-12-29T07:40:20.171Z,46.05
2018-12-29T07:42:51.519Z,44.02
2018-12-29T07:45:23.014Z,44.02
2018-12-29T07:47:54.250Z,43.73
2018-12-29T07:50:25.536Z,43.93
2018-12-29T07:52:57.129Z,44.43
2018-12-29T07:55:29.346Z,44.43
2018-12-29T07:58:00.743Z,46.14
2018-12-29T08:00:31.887Z,44.00
2018-12-29T08:03:03.318Z,43.07
2018-12-29T08:05:35.021Z,40.48
2018-12-29T08:08:06.221Z,39.62
2018-12-29T08:10:38.822Z,40.28
2018-12-29T08:13:10.672Z,40.28
2018-12-29T08:15:42.192Z,41.98
2018-12-29T08:18:14.637Z,42.41
2018-12-29T08:20:46.430Z,43.08
2018-12-29T08:23:17.560Z,44.22
2018-12-29T08:25:49.262Z,44.22
2018-12-29T08:28:23.598Z,45.19
2018-12-29T08:30:55.424Z,43.03
2018-12-29T08:33:26.896Z,43.03
2018-12-29T08:36:04.993Z,41.41
2018-12-29T08:38:37.451Z,43.12
2018-12-29T08:41:09.021Z,40.86
2018-12-29T08:43:40.249Z,40.65
2018-12-29T08:46:11.938Z,39.60
2018-12-29T08:48:44.667Z,42.49
2018-12-29T08:51:15.733Z,42.49
2018-12-29T08:53:47.756Z,44.63
2018-12-29T08:56:19.149Z,44.23
2018-12-29T08:58:50.372Z,46.18
2018-12-29T09:01:21.528Z,46.18
2018-12-29T09:03:52.871Z,43.82
2018-12-29T09:06:24.516Z,46.22
2018-12-29T09:08:55.958Z,46.22
2018-12-29T09:14:46.306Z,41.21
2018-12-29T09:17:19.131Z,44.00
2018-12-29T09:20:08.542Z,41.74
2018-12-29T09:22:41.836Z,41.81
2018-12-29T09:25:13.254Z,43.17
2018-12-29T09:27:45.321Z,43.17
2018-12-29T09:30:17.032Z,44.06
2018-12-29T09:32:48.237Z,44.06
2018-12-29T09:35:19.415Z,42.06
2018-12-29T09:37:51.463Z,42.41
2018-12-29T09:40:23.174Z,43.81
2018-12-29T09:42:55.962Z,42.59
2018-12-29T09:45:27.914Z,44.11
2018-12-29T09:47:59.636Z,44.11
2018-12-29T09:50:32.177Z,44.40
2018-12-29T09:53:03.583Z,41.68
2018-12-29T09:55:35.178Z,45.78
2018-12-29T09:58:06.402Z,45.78
2018-12-29T10:00:37.867Z,45.90
2018-12-29T10:03:09.387Z,44.86
2018-12-29T10:05:43.031Z,46.11
2018-12-29T10:08:16.068Z,45.90
2018-12-29T10:10:48.527Z,46.65
2018-12-29T10:13:21.970Z,46.00
2018-12-29T10:15:53.448Z,46.96
2018-12-29T10:18:24.971Z,46.96
2018-12-29T10:20:56.262Z,47.58
2018-12-29T10:23:27.814Z,45.56
2018-12-29T10:25:59.034Z,48.55
2018-12-29T10:28:30.216Z,48.55
2018-12-29T10:31:01.746Z,47.43
2018-12-29T10:33:32.924Z,48.56
2018-12-29T10:36:04.211Z,48.56
2018-12-29T10:38:37.021Z,48.16
2018-12-29T10:41:08.509Z,48.85
2018-12-29T10:43:39.777Z,48.85
2018-12-29T10:46:11.156Z,48.07
2018-12-29T10:48:42.768Z,48.80
2018-12-29T10:51:14.022Z,47.42
2018-12-29T10:53:45.601Z,48.54
2018-12-29T10:56:16.830Z,49.87
2018-12-29T10:58:48.378Z,49.87
2018-12-29T11:01:20.029Z,46.51
2018-12-29T11:03:51.225Z,46.51
2018-12-29T11:06:22.541Z,48.75
2018-12-29T11:08:54.588Z,50.38
2018-12-29T11:11:26.344Z,50.21
2018-12-29T11:13:57.725Z,50.21
2018-12-29T11:16:31.219Z,50.12
2018-12-29T11:19:02.645Z,50.97
2018-12-29T11:21:33.793Z,50.97
2018-12-29T11:24:05.369Z,51.50
2018-12-29T11:26:36.731Z,51.50
2018-12-29T11:29:08.025Z,51.62
2018-12-29T11:31:39.687Z,51.64
2018-12-29T11:34:11.371Z,51.65
2018-12-29T11:36:42.772Z,51.65
2018-12-29T11:39:14.615Z,51.89
2018-12-29T11:41:45.917Z,51.88
2018-12-29T11:44:17.588Z,51.65
2018-12-29T11:46:49.338Z,51.83
2018-12-29T11:49:20.930Z,51.87
2018-12-29T11:51:52.960Z,51.66
2018-12-29T11:54:25.292Z,51.66
2018-12-29T11:56:57.256Z,51.47
2018-12-29T11:59:28.653Z,51.66
2018-12-29T12:02:00.083Z,52.06
2018-12-29T12:04:32.162Z,52.06
2018-12-29T12:07:03.745Z,52.05
2018-12-29T12:09:36.020Z,51.99
2018-12-29T12:12:07.442Z,52.09
2018-12-29T12:14:39.117Z,52.18
2018-12-29T12:17:10.868Z,52.18
2018-12-29T12:19:42.368Z,52.63
2018-12-29T12:22:13.900Z,52.63
2018-12-29T12:24:45.377Z,52.40
2018-12-29T12:27:17.068Z,52.36
2018-12-29T12:29:49.018Z,52.36
2018-12-29T12:32:21.124Z,52.32
2018-12-29T12:34:53.360Z,52.32
2018-12-29T12:37:24.679Z,52.92
2018-12-29T12:39:56.849Z,53.10
2018-12-29T12:42:28.597Z,53.79
2018-12-29T12:45:00.223Z,54.05
2018-12-29T12:47:31.784Z,54.05
2018-12-29T12:50:03.553Z,54.10
2018-12-29T12:52:35.308Z,54.12
2018-12-29T12:55:06.821Z,54.21
2018-12-29T12:57:38.186Z,54.67
2018-12-29T13:00:10.357Z,54.67
2018-12-29T13:02:42.875Z,55.13
2018-12-29T13:05:14.228Z,55.13
2018-12-29T13:07:45.592Z,55.12
2018-12-29T13:10:16.972Z,55.12
2018-12-29T13:12:48.600Z,55.07
2018-12-29T13:15:21.747Z,55.10
2018-12-29T13:17:53.410Z,54.99
2018-12-29T13:20:25.141Z,54.71
2018-12-29T13:22:57.257Z,54.82
2018-12-29T13:25:29.150Z,54.79
2018-12-29T13:28:01.361Z,54.95
2018-12-29T13:30:32.837Z,55.03
2018-12-29T13:33:04.918Z,55.03
2018-12-29T13:35:36.477Z,55.08
2018-12-29T13:38:08.184Z,55.08
2018-12-29T13:40:41.069Z,55.17
2018-12-29T13:43:12.646Z,54.84
2018-12-29T13:45:44.339Z,54.84
2018-12-29T13:48:20.506Z,54.84
2018-12-29T13:50:49.374Z,54.99
2018-12-29T13:53:20.950Z,55.04
2018-12-29T13:55:52.273Z,55.18
2018-12-29T13:58:23.861Z,55.18
2018-12-29T14:00:55.774Z,55.41
2018-12-29T14:03:27.661Z,55.43
2018-12-29T14:05:59.304Z,55.36
2018-12-29T14:08:31.256Z,56.00
2018-12-29T14:11:03.314Z,56.00
2018-12-29T14:13:35.130Z,56.10
2018-12-29T14:16:07.102Z,55.98
2018-12-29T14:18:39.510Z,55.84
2018-12-29T14:21:11.845Z,55.84
2018-12-29T14:23:44.491Z,55.82
2018-12-29T14:26:16.074Z,55.82
2018-12-29T14:28:47.809Z,56.11
2018-12-29T14:31:19.459Z,56.27
2018-12-29T14:33:51.047Z,56.61
2018-12-29T14:36:23.133Z,56.96
2018-12-29T14:38:54.363Z,57.08
2018-12-29T14:41:26.412Z,57.51
2018-12-29T14:43:57.706Z,57.84
2018-12-29T14:46:29.418Z,57.66
2018-12-29T14:49:00.992Z,57.63
2018-12-29T14:51:32.461Z,57.63
2018-12-29T14:54:03.728Z,57.71
2018-12-29T14:56:35.306Z,58.32
2018-12-29T14:59:07.160Z,58.40
2018-12-29T15:01:38.844Z,58.81
2018-12-29T15:04:10.061Z,58.92
2018-12-29T15:06:41.575Z,58.13
2018-12-29T15:09:12.927Z,59.41
2018-12-29T15:11:44.754Z,59.41
2018-12-29T15:14:17.149Z,59.64
2018-12-29T15:16:49.495Z,59.66
2018-12-29T15:19:22.925Z,59.66
2018-12-29T15:21:54.477Z,59.13
2018-12-29T15:24:26.261Z,59.38
2018-12-29T15:26:57.728Z,59.38
2018-12-29T15:29:29.206Z,59.08
2018-12-29T15:32:00.648Z,59.08
2018-12-29T15:34:32.610Z,59.65
2018-12-29T15:37:04.059Z,59.80
2018-12-29T15:39:35.612Z,59.80
2018-12-29T15:42:07.501Z,59.89
2018-12-29T15:44:38.720Z,60.30
2018-12-29T15:47:10.440Z,59.91
2018-12-29T15:49:41.968Z,59.91
2018-12-29T15:52:13.445Z,60.12
2018-12-29T15:54:45.369Z,60.64
2018-12-29T15:57:16.862Z,60.64
2018-12-29T15:59:48.862Z,60.20
2018-12-29T16:02:20.366Z,59.90
2018-12-29T16:04:53.865Z,60.14
2018-12-29T16:07:26.151Z,60.14
2018-12-29T16:09:57.481Z,59.75
2018-12-29T16:12:29.194Z,59.08
2018-12-29T16:15:00.613Z,59.01
2018-12-29T16:17:32.367Z,59.01
2018-12-29T16:20:03.908Z,59.67
2018-12-29T16:22:35.223Z,60.37
2018-12-29T16:25:06.803Z,60.41
2018-12-29T16:27:38.552Z,60.23
2018-12-29T16:30:10.482Z,60.23
2018-12-29T16:32:42.373Z,59.81
2018-12-29T16:35:14.261Z,60.00
2018-12-29T16:37:45.744Z,60.14
2018-12-29T16:40:16.969Z,59.75
2018-12-29T16:42:48.977Z,59.75
2018-12-29T16:45:20.409Z,59.92
2018-12-29T16:47:51.742Z,59.92
2018-12-29T16:50:23.156Z,60.42
2018-12-29T16:52:54.580Z,60.33
2018-12-29T16:55:25.899Z,60.33
2018-12-29T16:57:57.484Z,60.57
2018-12-29T17:00:29.344Z,61.21
2018-12-29T17:03:01.182Z,61.21
2018-12-29T17:05:32.716Z,61.53
2018-12-29T17:08:04.481Z,61.25
2018-12-29T17:10:36.164Z,62.20
2018-12-29T17:13:08.141Z,62.21
2018-12-29T17:15:39.658Z,61.90
2018-12-29T17:18:11.470Z,62.37
2018-12-29T17:20:43.194Z,62.37
2018-12-29T17:23:14.655Z,62.47
2018-12-29T17:25:46.182Z,62.52
2018-12-29T17:28:17.580Z,62.52
2018-12-29T17:30:49.107Z,62.24
2018-12-29T17:33:20.467Z,62.31
2018-12-29T17:35:52.784Z,62.68
2018-12-29T17:38:24.590Z,63.07
2018-12-29T17:40:56.356Z,62.75
2018-12-29T17:43:28.492Z,62.75
2018-12-29T17:46:00.087Z,62.92
2018-12-29T17:48:31.474Z,62.95
2018-12-29T17:51:03.159Z,63.51
2018-12-29T17:53:34.843Z,63.26
2018-12-29T17:56:06.411Z,63.43
2018-12-29T17:58:37.999Z,63.51
2018-12-29T18:01:09.662Z,63.68
2018-12-29T18:03:40.971Z,63.68
2018-12-29T18:06:12.452Z,63.51
2018-12-29T18:08:43.615Z,63.42
2018-12-29T18:11:14.881Z,64.06
2018-12-29T18:13:46.991Z,64.14
2018-12-29T18:16:18.575Z,64.14
2018-12-29T18:18:50.224Z,63.99
2018-12-29T18:21:21.468Z,63.96
2018-12-29T18:23:53.064Z,64.32
2018-12-29T18:26:24.385Z,64.32
2018-12-29T18:28:56.074Z,64.28
2018-12-29T18:31:27.341Z,64.28
2018-12-29T18:33:58.775Z,64.12
2018-12-29T18:36:30.573Z,64.17
2018-12-29T18:39:02.944Z,64.19
2018-12-29T18:41:34.916Z,64.74
2018-12-29T18:44:07.507Z,65.05
2018-12-29T18:46:39.299Z,65.05
2018-12-29T18:49:10.694Z,64.92
2018-12-29T18:51:42.428Z,64.79
2018-12-29T18:54:13.906Z,64.93
2018-12-29T18:56:45.805Z,64.62
2018-12-29T18:59:18.005Z,64.62
2018-12-29T19:01:57.370Z,64.98
2018-12-29T19:04:22.756Z,64.76
2018-12-29T19:06:54.439Z,65.09
2018-12-29T19:09:25.785Z,64.88
2018-12-29T19:11:57.335Z,64.88
2018-12-29T19:14:29.165Z,65.81
2018-12-29T19:17:00.615Z,65.81
2018-12-29T19:19:32.319Z,65.74
2018-12-29T19:22:03.591Z,65.74
2018-12-29T19:24:34.915Z,65.68
2018-12-29T19:27:06.515Z,65.40
2018-12-29T19:29:38.160Z,65.40
2018-12-29T19:32:09.939Z,66.01
2018-12-29T19:34:41.900Z,66.02
2018-12-29T19:37:13.773Z,65.94
2018-12-29T19:39:45.747Z,65.94
2018-12-29T19:42:17.108Z,66.08
2018-12-29T19:44:49.026Z,66.46
2018-12-29T19:47:20.411Z,66.46
2018-12-29T19:49:53.788Z,66.67
2018-12-29T19:52:25.549Z,66.67
2018-12-29T19:54:56.876Z,66.33
2018-12-29T19:57:28.978Z,66.44
2018-12-29T20:00:00.397Z,67.24
2018-12-29T20:02:32.165Z,67.24
2018-12-29T20:05:03.904Z,66.25
2018-12-29T20:07:35.491Z,66.25
2018-12-29T20:10:07.248Z,66.79
2018-12-29T20:12:39.725Z,66.31
2018-12-29T20:15:11.449Z,66.31
2018-12-29T20:17:43.029Z,66.47
2018-12-29T20:20:14.398Z,66.67
2018-12-29T20:22:45.886Z,66.79
2018-12-29T20:25:17.552Z,66.59
2018-12-29T20:27:49.094Z,66.82
2018-12-29T20:30:20.588Z,66.58
2018-12-29T20:32:58.991Z,66.66
2018-12-29T20:35:24.928Z,67.19
2018-12-29T20:37:56.877Z,67.42
2018-12-29T20:40:28.979Z,66.80
2018-12-29T20:43:00.373Z,67.36
2018-12-29T20:45:32.060Z,67.58
2018-12-29T20:48:03.603Z,67.58
2018-12-29T20:50:34.944Z,67.42
2018-12-29T20:53:06.514Z,67.17
2018-12-29T20:55:37.884Z,67.16
2018-12-29T20:58:09.179Z,67.16
2018-12-29T21:00:40.722Z,66.87
2018-12-29T21:03:12.468Z,66.87
2018-12-29T21:05:43.805Z,67.24
2018-12-29T21:08:15.315Z,67.26
2018-12-29T21:10:46.522Z,67.16
2018-12-29T21:13:18.045Z,67.29
2018-12-29T21:15:49.835Z,67.83
2018-12-29T21:18:21.484Z,67.25
2018-12-29T21:20:52.724Z,67.25
2018-12-29T21:23:24.551Z,67.43
2018-12-29T21:25:55.803Z,67.32
2018-12-29T21:28:27.456Z,67.39
2018-12-29T21:30:59.020Z,67.03
2018-12-29T21:33:30.778Z,67.80
2018-12-29T21:36:02.043Z,67.99
2018-12-29T21:38:33.448Z,67.99
2018-12-29T21:41:05.449Z,68.13
2018-12-29T21:43:37.014Z,67.97
2018-12-29T21:46:09.014Z,67.97
2018-12-29T21:48:40.407Z,68.25
2018-12-29T21:51:11.751Z,68.08
2018-12-29T21:53:42.992Z,68.08
2018-12-29T21:56:14.689Z,67.90
2018-12-29T21:58:46.046Z,67.69
2018-12-29T22:01:17.526Z,68.09
2018-12-29T22:03:48.880Z,68.08
2018-12-29T22:06:21.821Z,67.91
2018-12-29T22:08:53.332Z,67.91
2018-12-29T22:11:24.997Z,67.86
2018-12-29T22:13:56.659Z,67.28
2018-12-29T22:16:28.488Z,67.62
2018-12-29T22:19:00.072Z,67.62
2018-12-29T22:21:31.786Z,67.84
2018-12-29T22:24:03.288Z,67.63
2018-12-29T22:26:35.007Z,67.63
2018-12-29T22:29:06.467Z,67.95
2018-12-29T22:31:37.925Z,67.22
2018-12-29T22:34:10.196Z,67.22
2018-12-29T22:36:41.725Z,67.81
2018-12-29T22:39:13.530Z,67.42
2018-12-29T22:41:45.456Z,67.42
2018-12-29T22:44:17.280Z,67.37
2018-12-29T22:46:49.439Z,67.37
2018-12-29T22:49:21.017Z,67.59
2018-12-29T22:51:52.436Z,68.55
2018-12-29T22:54:24.039Z,67.91
2018-12-29T22:56:56.025Z,67.78
2018-12-29T22:59:27.339Z,67.83
2018-12-29T23:01:58.929Z,68.12
2018-12-29T23:04:30.663Z,68.01
2018-12-29T23:07:02.362Z,68.01
2018-12-29T23:09:33.794Z,68.18
2018-12-29T23:12:06.423Z,68.18
2018-12-29T23:14:37.987Z,67.37
2018-12-29T23:17:10.349Z,67.96
2018-12-29T23:19:42.014Z,67.99
2018-12-29T23:22:13.564Z,67.38
2018-12-29T23:24:45.331Z,67.39
2018-12-29T23:27:17.086Z,66.81
2018-12-29T23:29:48.505Z,66.81
2018-12-29T23:32:19.886Z,66.52
2018-12-29T23:34:51.142Z,66.52
2018-12-29T23:37:22.578Z,66.50
2018-12-29T23:39:54.502Z,66.99
2018-12-29T23:42:25.895Z,66.99
2018-12-29T23:44:57.319Z,66.83
2018-12-29T23:47:29.542Z,66.72
2018-12-29T23:50:00.866Z,66.72
2018-12-29T23:52:32.352Z,66.29
2018-12-29T23:55:03.754Z,66.03
2018-12-29T23:57:35.313Z,66.18
